aviador You're here:

LFRT Decoded Metar

ST.-BRIEUC ARMOR in FRANCE
Report Time2017-09-23 08:30:00
UTC Time2017-09-23 09:01:44
Flight Rules unknown UNKNOWN
Wind190° at 06 kt
W.Decomp.*RWY 24: 4.0 kt HW 4.5 kt LCW
W.Rank190° ranks 14
Current wind is below 190° avg. (7.6)
VisibilityN/A
Phenomena:N/A
Clouds:N/A
Expected CloudBase > 1,600 ft AGL from Temp-Dew spread
CeilingNone
Temp14°C (ISA -0)
Dew Point10°C (77% RH)
AAT11.9°C
QNH1021 hPa
Density Alt328 ft
Elevation446 ft
Report Wrong Elevation
Raw Report
METAR LFRT 230830Z AUTO 19006KT 160V240 //// // NSC 14/10 Q1021=

Extra information for LFRT:More info

Metar Taf Metar & Taf Last 4 Metars F.Rules Stats Wind Profile Meteogram Temp Stats Airport Information Weather charts Add Link Nearby VenuesMetar ALERT Operation Metar Decoded Social comments